createdAt,value
2023-04-01T00:00:04.331Z,1.30
2023-04-01T00:01:06.936Z,1.45
2023-04-01T00:01:58.590Z,1.22
2023-04-01T00:02:52.558Z,1.22
2023-04-01T00:03:44.376Z,1.16
2023-04-01T00:04:35.958Z,1.64
2023-04-01T00:05:27.762Z,1.11
2023-04-01T00:06:20.200Z,1.21
2023-04-01T00:07:11.845Z,1.28
2023-04-01T00:08:03.622Z,1.02
2023-04-01T00:08:55.445Z,1.01
2023-04-01T00:09:47.186Z,1.08
2023-04-01T00:10:38.688Z,0.93
2023-04-01T00:11:33.521Z,0.78
2023-04-01T00:12:26.154Z,1.09
2023-04-01T00:13:17.933Z,1.02
2023-04-01T00:14:09.564Z,1.01
2023-04-01T00:15:02.097Z,0.88
2023-04-01T00:15:56.634Z,0.92
2023-04-01T00:16:51.581Z,0.81
2023-04-01T00:17:43.529Z,0.73
2023-04-01T00:18:35.257Z,1.02
2023-04-01T00:19:29.562Z,1.00
2023-04-01T00:20:22.095Z,1.15
2023-04-01T00:21:14.282Z,1.05
2023-04-01T00:22:06.284Z,0.90
2023-04-01T00:22:58.342Z,0.72
2023-04-01T00:23:51.973Z,1.08
2023-04-01T00:24:43.662Z,0.99
2023-04-01T00:25:35.382Z,0.91
2023-04-01T00:26:27.537Z,0.77
2023-04-01T00:27:19.165Z,0.84
2023-04-01T00:28:10.721Z,0.97
2023-04-01T00:29:02.259Z,0.98
2023-04-01T00:29:53.686Z,1.12
2023-04-01T00:30:45.310Z,1.24
2023-04-01T00:31:36.885Z,1.25
2023-04-01T00:32:28.432Z,0.91
2023-04-01T00:33:21.031Z,1.12
2023-04-01T00:34:13.041Z,1.37
2023-04-01T00:35:05.822Z,0.93
2023-04-01T00:36:07.492Z,0.87
2023-04-01T00:36:59.049Z,0.78
2023-04-01T00:37:50.516Z,1.18
2023-04-01T00:38:43.523Z,0.95
2023-04-01T00:39:36.124Z,1.01
2023-04-01T00:40:30.186Z,0.88
2023-04-01T00:41:22.575Z,0.90
2023-04-01T00:42:14.876Z,0.82
2023-04-01T00:43:14.905Z,0.76
2023-04-01T00:44:20.458Z,0.52
2023-04-01T00:45:30.087Z,0.79
2023-04-01T00:46:21.923Z,1.14
2023-04-01T00:47:13.595Z,0.72
2023-04-01T00:48:33.662Z,0.74
2023-04-01T00:49:30.836Z,0.79
2023-04-01T00:50:26.383Z,0.63
2023-04-01T00:51:28.638Z,0.60
2023-04-01T00:52:24.059Z,0.84
2023-04-01T00:53:16.497Z,0.86
2023-04-01T00:54:10.931Z,0.86
2023-04-01T00:55:07.180Z,1.09
2023-04-01T00:56:12.805Z,0.85
2023-04-01T00:57:15.413Z,0.81
2023-04-01T00:58:14.282Z,0.55
2023-04-01T00:59:12.397Z,0.90
2023-04-01T01:00:08.465Z,0.67
2023-04-01T01:01:01.870Z,0.78
2023-04-01T01:01:53.564Z,0.97
2023-04-01T01:02:47.250Z,1.32
2023-04-01T01:03:39.244Z,0.77
2023-04-01T01:04:34.174Z,0.52
2023-04-01T01:05:49.429Z,0.67
2023-04-01T01:07:01.618Z,0.73
2023-04-01T01:08:11.849Z,0.59
2023-04-01T01:09:22.235Z,0.87
2023-04-01T01:10:30.994Z,0.64
2023-04-01T01:11:42.552Z,0.62
2023-04-01T01:12:53.342Z,0.91
2023-04-01T01:13:57.585Z,0.61
2023-04-01T01:15:14.242Z,0.60
2023-04-01T01:16:26.561Z,0.54
2023-04-01T01:17:33.739Z,0.72
2023-04-01T01:18:34.881Z,0.61
2023-04-01T01:19:58.113Z,0.62
2023-04-01T01:21:08.587Z,0.78
2023-04-01T01:22:06.463Z,0.57
2023-04-01T01:23:13.855Z,0.71
2023-04-01T01:24:29.583Z,0.86
2023-04-01T01:25:52.590Z,0.51
2023-04-01T01:26:56.214Z,0.70
2023-04-01T01:28:03.405Z,0.41
2023-04-01T01:29:28.463Z,0.49
2023-04-01T01:30:45.083Z,0.56
2023-04-01T01:32:05.442Z,0.79
2023-04-01T01:33:26.502Z,0.48
2023-04-01T01:34:56.534Z,0.53
2023-04-01T01:35:57.591Z,0.74
2023-04-01T01:36:56.578Z,0.54
2023-04-01T01:37:54.791Z,0.61
2023-04-01T01:38:51.144Z,0.61
2023-04-01T01:39:48.354Z,0.81
2023-04-01T01:40:45.169Z,0.70
2023-04-01T01:41:42.580Z,0.57
2023-04-01T01:42:40.529Z,0.60
2023-04-01T01:43:44.466Z,0.62
2023-04-01T01:44:45.582Z,0.71
2023-04-01T01:45:45.799Z,0.88
2023-04-01T01:46:44.606Z,0.64
2023-04-01T01:47:37.528Z,0.73
2023-04-01T01:48:33.928Z,0.69
2023-04-01T01:49:28.226Z,1.24
2023-04-01T01:50:22.303Z,0.98
2023-04-01T01:51:13.908Z,0.63
2023-04-01T01:52:06.537Z,0.78
2023-04-01T01:53:03.292Z,0.89
2023-04-01T01:53:55.568Z,0.86
2023-04-01T01:54:53.306Z,0.60
2023-04-01T01:55:48.236Z,0.73
2023-04-01T01:56:42.487Z,0.83
2023-04-01T01:57:37.273Z,0.82
2023-04-01T01:58:50.578Z,0.64
2023-04-01T01:59:48.486Z,0.68
2023-04-01T02:01:01.563Z,1.52
2023-04-01T02:01:57.887Z,0.89
2023-04-01T02:02:51.871Z,0.63
2023-04-01T02:03:47.530Z,0.61
2023-04-01T02:04:46.579Z,0.62
2023-04-01T02:05:38.754Z,0.58
2023-04-01T02:06:39.489Z,0.65
2023-04-01T02:07:37.013Z,0.68
2023-04-01T02:08:41.787Z,0.84
2023-04-01T02:09:35.221Z,0.89
2023-04-01T02:10:32.374Z,0.54
2023-04-01T02:11:33.248Z,0.46
2023-04-01T02:12:25.766Z,0.54
2023-04-01T02:13:34.188Z,0.55
2023-04-01T02:14:48.765Z,0.38
2023-04-01T02:15:47.872Z,0.49
2023-04-01T02:16:54.605Z,0.71
2023-04-01T02:17:49.022Z,0.90
2023-04-01T02:18:44.689Z,0.81
2023-04-01T02:19:47.260Z,0.66
2023-04-01T02:20:40.795Z,0.63
2023-04-01T02:21:33.383Z,0.71
2023-04-01T02:22:34.924Z,0.92
2023-04-01T02:23:28.806Z,0.55
2023-04-01T02:24:23.428Z,0.66
2023-04-01T02:25:19.757Z,0.46
2023-04-01T02:26:14.146Z,0.65
2023-04-01T02:27:05.922Z,0.74
2023-04-01T02:28:00.285Z,0.78
2023-04-01T02:28:55.976Z,0.81
2023-04-01T02:29:54.093Z,0.73
2023-04-01T02:30:46.105Z,0.46
2023-04-01T02:31:40.102Z,0.49
2023-04-01T02:32:35.725Z,0.82
2023-04-01T02:33:29.522Z,1.07
2023-04-01T02:34:24.021Z,1.00
2023-04-01T02:35:20.946Z,0.86
2023-04-01T02:36:16.988Z,0.59
2023-04-01T02:37:09.145Z,0.97
2023-04-01T02:38:01.712Z,0.87
2023-04-01T02:38:56.075Z,0.68
2023-04-01T02:39:47.566Z,0.61
2023-04-01T02:40:43.881Z,0.78
2023-04-01T02:41:41.502Z,1.18
2023-04-01T02:42:35.629Z,0.78
2023-04-01T02:43:27.964Z,0.85
2023-04-01T02:44:19.443Z,0.63
2023-04-01T02:45:11.673Z,0.65
2023-04-01T02:46:03.407Z,0.88
2023-04-01T02:46:57.169Z,0.83
2023-04-01T02:47:51.065Z,0.84
2023-04-01T02:48:42.491Z,0.78
2023-04-01T02:49:39.098Z,0.85
2023-04-01T02:50:31.593Z,1.14
2023-04-01T02:51:26.685Z,0.97
2023-04-01T02:52:18.293Z,0.86
2023-04-01T02:53:10.226Z,0.99
2023-04-01T02:54:02.217Z,0.75
2023-04-01T02:54:54.524Z,0.83
2023-04-01T02:55:46.344Z,0.66
2023-04-01T02:56:37.902Z,0.69
2023-04-01T02:57:30.506Z,0.91
2023-04-01T02:58:22.310Z,0.69
2023-04-01T02:59:13.957Z,0.70
2023-04-01T03:00:11.653Z,0.87
2023-04-01T03:01:03.203Z,0.92
2023-04-01T03:01:54.807Z,0.95
2023-04-01T03:02:46.279Z,0.80
2023-04-01T03:03:38.251Z,0.72
2023-04-01T03:04:29.939Z,0.84
2023-04-01T03:05:22.010Z,0.92
2023-04-01T03:06:15.965Z,0.97
2023-04-01T03:07:07.743Z,0.68
2023-04-01T03:07:59.305Z,0.73
2023-04-01T03:08:50.967Z,0.68
2023-04-01T03:09:42.799Z,0.42
2023-04-01T03:10:34.372Z,0.58
2023-04-01T03:11:27.170Z,0.71
2023-04-01T03:12:18.735Z,0.72
2023-04-01T03:13:15.318Z,0.69
2023-04-01T03:14:07.943Z,0.86
2023-04-01T03:15:11.207Z,0.88
2023-04-01T03:16:04.770Z,0.61
2023-04-01T03:16:56.546Z,0.64
2023-04-01T03:17:48.169Z,0.81
2023-04-01T03:18:39.659Z,0.93
2023-04-01T03:19:33.260Z,0.91
2023-04-01T03:20:28.842Z,0.83
2023-04-01T03:21:23.839Z,1.34
2023-04-01T03:22:17.970Z,1.00
2023-04-01T03:23:10.023Z,0.94
2023-04-01T03:24:03.025Z,1.20
2023-04-01T03:24:57.672Z,1.30
2023-04-01T03:25:49.135Z,0.78
2023-04-01T03:26:41.976Z,0.90
2023-04-01T03:27:35.899Z,0.92
2023-04-01T03:28:27.618Z,0.98
2023-04-01T03:29:19.378Z,1.11
2023-04-01T03:30:11.286Z,0.67
2023-04-01T03:31:13.248Z,0.58
2023-04-01T03:32:13.049Z,1.00
2023-04-01T03:33:05.020Z,0.93
2023-04-01T03:33:57.284Z,0.87
2023-04-01T03:34:48.827Z,0.75
2023-04-01T03:35:40.249Z,0.68
2023-04-01T03:36:31.868Z,0.65
2023-04-01T03:37:25.493Z,0.73
2023-04-01T03:38:19.858Z,0.62
2023-04-01T03:39:11.660Z,1.07
2023-04-01T03:40:07.202Z,0.86
2023-04-01T03:41:00.910Z,0.74
2023-04-01T03:41:52.561Z,0.73
2023-04-01T03:42:46.831Z,0.64
2023-04-01T03:43:40.702Z,0.65
2023-04-01T03:44:34.115Z,0.63
2023-04-01T03:45:26.287Z,0.55
2023-04-01T03:46:21.452Z,0.73
2023-04-01T03:47:13.566Z,0.55
2023-04-01T03:48:05.717Z,0.57
2023-04-01T03:48:57.301Z,0.58
2023-04-01T03:49:48.809Z,0.82
2023-04-01T03:50:40.350Z,0.65
2023-04-01T03:51:32.175Z,0.44
2023-04-01T03:52:24.717Z,0.43
2023-04-01T03:53:18.515Z,0.54
2023-04-01T03:54:12.408Z,0.64
2023-04-01T03:55:04.649Z,0.55
2023-04-01T03:55:56.666Z,0.36
2023-04-01T03:56:48.250Z,0.35
2023-04-01T03:57:40.396Z,0.44
2023-04-01T03:58:40.777Z,0.43
2023-04-01T03:59:37.426Z,0.39
2023-04-01T04:00:31.383Z,0.36
2023-04-01T04:01:23.528Z,0.58
2023-04-01T04:02:18.699Z,0.55
2023-04-01T04:03:14.812Z,0.35
2023-04-01T04:04:07.533Z,0.40
2023-04-01T04:04:59.003Z,0.61
2023-04-01T04:05:52.962Z,0.60
2023-04-01T04:06:45.358Z,0.48
2023-04-01T04:07:37.494Z,0.70
2023-04-01T04:08:31.835Z,0.46
2023-04-01T04:09:24.266Z,0.41
2023-04-01T04:10:16.122Z,0.46
2023-04-01T04:11:07.640Z,0.60
2023-04-01T04:12:02.004Z,0.44
2023-04-01T04:12:54.409Z,0.52
2023-04-01T04:13:51.077Z,0.64
2023-04-01T04:14:42.587Z,0.48
2023-04-01T04:15:34.473Z,0.40
2023-04-01T04:16:26.460Z,0.63
2023-04-01T04:17:22.638Z,0.51
2023-04-01T04:18:14.469Z,0.54
2023-04-01T04:19:06.038Z,0.49
2023-04-01T04:19:57.511Z,0.34
2023-04-01T04:20:51.182Z,0.38
2023-04-01T04:21:43.595Z,0.50
2023-04-01T04:22:38.695Z,0.59
2023-04-01T04:23:34.688Z,0.48
2023-04-01T04:24:26.664Z,0.74
2023-04-01T04:25:27.108Z,0.65
2023-04-01T04:26:18.890Z,0.72
2023-04-01T04:27:18.317Z,0.54
2023-04-01T04:28:19.785Z,0.59
2023-04-01T04:29:11.441Z,0.60
2023-04-01T04:30:04.797Z,0.37
2023-04-01T04:30:57.861Z,0.55
2023-04-01T04:31:49.434Z,0.48
2023-04-01T04:32:42.336Z,0.42
2023-04-01T04:33:36.295Z,0.52
2023-04-01T04:34:28.727Z,0.36
2023-04-01T04:35:20.466Z,0.39
2023-04-01T04:36:12.441Z,0.35
2023-04-01T04:37:04.760Z,0.26
2023-04-01T04:38:00.337Z,0.20
2023-04-01T04:38:51.936Z,0.31
2023-04-01T04:39:45.898Z,0.40
2023-04-01T04:40:40.606Z,0.22
2023-04-01T04:41:32.271Z,0.54
2023-04-01T04:42:23.896Z,0.34
2023-04-01T04:43:20.891Z,0.27
2023-04-01T04:44:12.432Z,0.24
2023-04-01T04:45:07.563Z,0.26
2023-04-01T04:46:00.351Z,0.24
2023-04-01T04:46:52.166Z,0.21
2023-04-01T04:47:44.268Z,0.27
2023-04-01T04:48:37.789Z,0.32
2023-04-01T04:49:30.375Z,0.22
2023-04-01T04:50:26.386Z,0.32
2023-04-01T04:51:24.086Z,0.33
2023-04-01T04:52:15.755Z,0.27
2023-04-01T04:53:07.213Z,0.21
2023-04-01T04:53:58.971Z,0.26
2023-04-01T04:55:02.942Z,0.23
2023-04-01T04:55:54.667Z,0.21
2023-04-01T04:56:55.768Z,0.16
2023-04-01T04:57:49.238Z,0.16
2023-04-01T04:58:41.337Z,0.32
2023-04-01T04:59:35.562Z,0.29
2023-04-01T05:00:32.340Z,0.26
2023-04-01T05:01:26.314Z,0.34
2023-04-01T05:02:18.162Z,0.36
2023-04-01T05:03:14.374Z,0.29
2023-04-01T05:04:06.249Z,0.45
2023-04-01T05:04:58.105Z,0.39
2023-04-01T05:05:53.454Z,0.38
2023-04-01T05:06:46.025Z,0.38
2023-04-01T05:07:37.578Z,0.25
2023-04-01T05:08:29.362Z,0.26
2023-04-01T05:09:21.253Z,0.26
2023-04-01T05:10:12.700Z,0.49
2023-04-01T05:11:07.606Z,0.49
2023-04-01T05:11:59.430Z,0.35
2023-04-01T05:12:53.431Z,0.41
2023-04-01T05:13:47.574Z,0.23
2023-04-01T05:14:39.108Z,0.28
2023-04-01T05:15:35.416Z,0.21
2023-04-01T05:16:27.314Z,0.39
2023-04-01T05:17:18.825Z,0.33
2023-04-01T05:18:10.835Z,0.39
2023-04-01T05:19:02.381Z,0.42
2023-04-01T05:19:54.159Z,0.35
2023-04-01T05:20:54.753Z,0.35
2023-04-01T05:21:46.242Z,0.44
2023-04-01T05:22:38.224Z,0.50
2023-04-01T05:23:32.661Z,0.23
2023-04-01T05:24:24.131Z,0.34
2023-04-01T05:25:16.719Z,0.29
2023-04-01T05:26:12.240Z,0.38
2023-04-01T05:27:03.701Z,0.26
2023-04-01T05:27:55.375Z,0.41
2023-04-01T05:28:47.363Z,0.38
2023-04-01T05:29:39.000Z,0.54
2023-04-01T05:30:33.238Z,0.52
2023-04-01T05:31:29.064Z,0.44
2023-04-01T05:32:20.671Z,0.56
2023-04-01T05:33:14.130Z,0.45
2023-04-01T05:34:06.018Z,0.39
2023-04-01T05:34:58.238Z,0.42
2023-04-01T05:35:49.836Z,0.42
2023-04-01T05:36:42.619Z,0.33
2023-04-01T05:37:35.719Z,0.36
2023-04-01T05:38:28.834Z,0.31
2023-04-01T05:39:20.269Z,0.31
2023-04-01T05:40:12.455Z,0.32
2023-04-01T05:41:05.157Z,0.47
2023-04-01T05:42:00.290Z,0.44
2023-04-01T05:42:51.811Z,0.44
2023-04-01T05:43:43.926Z,0.49
2023-04-01T05:44:54.077Z,0.58
2023-04-01T05:46:04.665Z,0.36
2023-04-01T05:47:10.902Z,0.54
2023-04-01T05:48:02.910Z,0.48
2023-04-01T05:48:58.845Z,0.52
2023-04-01T05:49:51.539Z,0.37
2023-04-01T05:50:43.836Z,0.52
2023-04-01T05:51:36.640Z,0.57
2023-04-01T05:52:28.324Z,0.45
2023-04-01T05:53:20.780Z,0.39
2023-04-01T05:54:12.396Z,0.50
2023-04-01T05:55:08.276Z,0.61
2023-04-01T05:56:05.096Z,0.47
2023-04-01T05:57:04.272Z,0.64
2023-04-01T05:57:56.582Z,0.52
2023-04-01T05:58:52.983Z,0.52
2023-04-01T05:59:46.789Z,0.44
2023-04-01T06:00:38.978Z,0.59
2023-04-01T06:01:32.559Z,0.58
2023-04-01T06:02:27.530Z,0.49
2023-04-01T06:03:20.447Z,0.44
2023-04-01T06:04:17.026Z,0.43
2023-04-01T06:05:24.142Z,0.45
2023-04-01T06:06:24.605Z,0.42
2023-04-01T06:07:18.974Z,0.50
2023-04-01T06:08:19.648Z,0.50
2023-04-01T06:09:31.458Z,0.56
2023-04-01T06:10:42.086Z,0.64
2023-04-01T06:11:58.743Z,0.63
2023-04-01T06:13:11.889Z,0.70
2023-04-01T06:14:31.474Z,0.53
2023-04-01T06:15:40.896Z,0.63
2023-04-01T06:16:56.180Z,0.48
2023-04-01T06:18:03.200Z,0.52
2023-04-01T06:18:56.902Z,0.45
2023-04-01T06:20:17.832Z,0.57
2023-04-01T06:21:26.867Z,0.60
2023-04-01T06:22:46.152Z,0.72
2023-04-01T06:24:14.335Z,0.75
2023-04-01T06:25:30.909Z,0.84
2023-04-01T06:27:05.825Z,0.62
2023-04-01T06:28:31.044Z,0.74
2023-04-01T06:29:40.840Z,0.65
2023-04-01T06:30:35.022Z,0.78
2023-04-01T06:32:02.375Z,0.65
2023-04-01T06:33:24.820Z,0.74
2023-04-01T06:34:58.864Z,0.63
2023-04-01T06:36:08.959Z,0.94
2023-04-01T06:37:40.073Z,0.78
2023-04-01T06:38:44.266Z,0.74
2023-04-01T06:39:58.826Z,0.89
2023-04-01T06:41:27.357Z,0.82
2023-04-01T06:43:02.158Z,0.78
2023-04-01T06:44:37.102Z,0.75
2023-04-01T06:46:12.877Z,0.76
2023-04-01T06:47:57.405Z,0.91
2023-04-01T06:49:26.127Z,0.77
2023-04-01T06:51:10.832Z,0.75
2023-04-01T06:53:00.948Z,0.77
2023-04-01T06:54:22.693Z,0.85
2023-04-01T06:55:47.345Z,0.72
2023-04-01T06:56:48.053Z,0.99
2023-04-01T06:57:54.018Z,1.04
2023-04-01T06:59:06.142Z,0.95
2023-04-01T07:00:02.307Z,0.91
2023-04-01T07:01:07.343Z,0.86
2023-04-01T07:02:10.950Z,0.91
2023-04-01T07:03:09.922Z,0.91
2023-04-01T07:04:11.216Z,0.78
2023-04-01T07:05:06.565Z,0.92
2023-04-01T07:06:07.006Z,0.88
2023-04-01T07:07:43.067Z,0.88
2023-04-01T07:08:42.897Z,1.07
2023-04-01T07:09:41.279Z,1.07
2023-04-01T07:11:12.543Z,1.24
2023-04-01T07:12:33.021Z,1.06
2023-04-01T07:13:52.063Z,1.11
2023-04-01T07:14:48.854Z,0.96
2023-04-01T07:15:46.984Z,0.95
2023-04-01T07:16:48.903Z,0.95
2023-04-01T07:17:45.844Z,1.13
2023-04-01T07:18:57.171Z,1.03
2023-04-01T07:19:59.662Z,1.10
2023-04-01T07:20:56.224Z,1.17
2023-04-01T07:21:50.086Z,1.33
2023-04-01T07:22:58.820Z,1.33
2023-04-01T07:24:07.640Z,1.33
2023-04-01T07:25:16.372Z,1.50
2023-04-01T07:26:24.054Z,1.17
2023-04-01T07:27:27.295Z,1.37
2023-04-01T07:28:22.149Z,1.37
2023-04-01T07:29:28.551Z,1.23
2023-04-01T07:30:25.633Z,1.41
2023-04-01T07:31:47.200Z,1.40
2023-04-01T07:32:48.811Z,1.11
2023-04-01T07:34:04.389Z,1.28
2023-04-01T07:35:34.723Z,1.27
2023-04-01T07:36:41.769Z,1.45
2023-04-01T07:38:05.458Z,1.40
2023-04-01T07:39:13.588Z,1.41
2023-04-01T07:40:51.095Z,1.27
2023-04-01T07:42:20.969Z,1.46
2023-04-01T07:43:35.303Z,1.55
2023-04-01T07:44:58.516Z,1.54
2023-04-01T07:46:10.909Z,1.36
2023-04-01T07:47:47.532Z,1.16
2023-04-01T07:48:51.547Z,1.27
2023-04-01T07:50:22.037Z,1.12
2023-04-01T07:51:36.355Z,1.28
2023-04-01T07:52:42.069Z,1.31
2023-04-01T07:54:00.210Z,1.02
2023-04-01T07:55:22.358Z,1.15
2023-04-01T07:56:28.452Z,1.40
2023-04-01T07:57:35.766Z,1.15
2023-04-01T07:58:34.456Z,1.28
2023-04-01T07:59:30.067Z,1.28
2023-04-01T08:01:02.433Z,1.44
2023-04-01T08:02:20.966Z,1.40
2023-04-01T08:03:21.702Z,1.35
2023-04-01T08:04:36.973Z,1.33
2023-04-01T08:05:46.851Z,1.26
2023-04-01T08:07:07.798Z,1.35
2023-04-01T08:08:16.680Z,1.30
2023-04-01T08:10:06.309Z,1.15
2023-04-01T08:11:46.316Z,1.43
2023-04-01T08:13:21.393Z,0.93
2023-04-01T08:15:00.487Z,1.31
2023-04-01T08:16:13.505Z,0.89
2023-04-01T08:17:34.470Z,1.03
2023-04-01T08:18:35.272Z,1.01
2023-04-01T08:19:57.349Z,1.04
2023-04-01T08:21:00.856Z,1.17
2023-04-01T08:21:58.485Z,0.96
2023-04-01T08:22:58.600Z,1.13
2023-04-01T08:24:00.361Z,1.03
2023-04-01T08:24:58.353Z,0.98
2023-04-01T08:26:11.495Z,1.12
2023-04-01T08:27:24.164Z,1.30
2023-04-01T08:28:42.080Z,1.08
2023-04-01T08:29:58.364Z,0.95
2023-04-01T08:31:16.176Z,1.36
2023-04-01T08:32:19.470Z,1.11
2023-04-01T08:33:26.397Z,1.15
2023-04-01T08:34:37.358Z,0.89
2023-04-01T08:36:06.343Z,1.09
2023-04-01T08:37:20.381Z,0.98
2023-04-01T08:38:23.408Z,1.05
2023-04-01T08:39:32.007Z,1.17
2023-04-01T08:40:27.297Z,1.26
2023-04-01T08:41:55.796Z,0.96
2023-04-01T08:43:38.180Z,0.99
2023-04-01T08:45:07.969Z,1.18
2023-04-01T08:46:05.976Z,1.41
2023-04-01T08:47:16.246Z,1.63
2023-04-01T08:48:33.825Z,1.50
2023-04-01T08:49:49.377Z,1.42
2023-04-01T08:51:19.006Z,1.05
2023-04-01T08:52:22.400Z,1.10
2023-04-01T08:53:32.452Z,1.37
2023-04-01T08:54:43.934Z,1.31
2023-04-01T08:56:05.328Z,1.17
2023-04-01T08:57:28.943Z,1.08
2023-04-01T08:59:20.443Z,1.29
2023-04-01T09:00:33.200Z,1.10
2023-04-01T09:01:41.707Z,1.45
2023-04-01T09:03:23.655Z,1.29
2023-04-01T09:04:44.067Z,1.17
2023-04-01T09:06:06.369Z,1.18
2023-04-01T09:07:13.334Z,1.13
2023-04-01T09:08:52.880Z,1.53
2023-04-01T09:10:45.308Z,1.02
2023-04-01T09:12:20.091Z,0.90
2023-04-01T09:13:42.408Z,1.06
2023-04-01T09:14:42.907Z,1.06
2023-04-01T09:16:09.882Z,1.00
2023-04-01T09:17:31.052Z,0.90
2023-04-01T09:18:31.913Z,0.87
2023-04-01T09:19:38.676Z,0.73
2023-04-01T09:20:57.052Z,0.83
2023-04-01T09:22:00.303Z,0.61
2023-04-01T09:23:33.251Z,0.81
2023-04-01T09:24:46.682Z,0.93
2023-04-01T09:25:54.287Z,0.72
2023-04-01T09:27:28.505Z,0.74
2023-04-01T09:28:27.397Z,0.89
2023-04-01T09:29:45.696Z,0.87
2023-04-01T09:30:58.238Z,0.91
2023-04-01T11:02:22.203Z,4.40
2023-04-01T11:04:25.471Z,4.37
2023-04-01T11:06:15.549Z,3.25
2023-04-01T11:07:28.883Z,3.43
2023-04-01T11:08:55.697Z,4.10
2023-04-01T11:10:27.625Z,3.51
2023-04-01T11:11:46.157Z,3.43
2023-04-01T11:12:45.491Z,4.29
2023-04-01T11:14:10.102Z,3.19
2023-04-01T11:15:43.329Z,5.16
2023-04-01T11:17:02.032Z,3.50
2023-04-01T11:18:32.156Z,3.33
2023-04-01T11:19:51.785Z,3.99
2023-04-01T11:21:26.524Z,3.64
2023-04-01T11:23:02.857Z,3.04
2023-04-01T11:24:11.690Z,3.31
2023-04-01T11:25:36.604Z,3.29
2023-04-01T11:27:11.364Z,3.42
2023-04-01T11:28:27.915Z,2.94
2023-04-01T11:29:29.939Z,2.99
2023-04-01T11:30:44.985Z,2.66
2023-04-01T11:31:41.676Z,2.21
2023-04-01T11:32:59.305Z,2.72
2023-04-01T11:34:28.959Z,3.12
2023-04-01T11:36:03.406Z,3.20
2023-04-01T11:37:26.062Z,2.98
2023-04-01T11:38:59.477Z,2.21
2023-04-01T11:40:36.047Z,2.48
2023-04-01T11:42:16.266Z,2.00
2023-04-01T11:43:39.039Z,2.25
2023-04-01T11:45:01.715Z,2.61
2023-04-01T11:46:28.455Z,2.54
2023-04-01T11:47:30.208Z,2.41
2023-04-01T11:48:53.832Z,2.55
2023-04-01T11:50:13.382Z,2.71
2023-04-01T11:51:35.579Z,2.39
2023-04-01T11:52:38.672Z,2.26
2023-04-01T11:53:59.187Z,2.22
2023-04-01T11:55:28.775Z,2.24
2023-04-01T11:56:38.803Z,2.31
2023-04-01T11:57:48.503Z,2.27
2023-04-01T11:59:07.793Z,2.18
2023-04-01T12:00:29.025Z,2.00
2023-04-01T12:01:31.310Z,2.25
2023-04-01T12:02:59.710Z,2.23
2023-04-01T12:04:25.342Z,2.39
2023-04-01T12:05:38.975Z,2.43
2023-04-01T12:07:04.644Z,2.34
2023-04-01T12:08:43.001Z,2.91
2023-04-01T12:10:25.821Z,2.62
2023-04-01T12:11:41.805Z,2.09
2023-04-01T12:13:18.274Z,2.37
2023-04-01T12:14:31.479Z,2.68
2023-04-01T12:15:42.230Z,2.04
2023-04-01T12:17:04.867Z,2.19
2023-04-01T12:18:16.842Z,2.13
2023-04-01T12:19:28.211Z,2.42
2023-04-01T12:20:36.597Z,2.07
2023-04-01T12:21:44.029Z,2.03
2023-04-01T12:22:51.788Z,1.72
2023-04-01T12:24:09.275Z,1.92
2023-04-01T12:25:25.695Z,2.05
2023-04-01T12:26:26.603Z,2.02
2023-04-01T12:27:36.177Z,1.94
2023-04-01T12:28:52.781Z,2.18
2023-04-01T12:30:05.319Z,2.29
2023-04-01T12:31:15.831Z,2.04
2023-04-01T12:32:36.087Z,1.81
2023-04-01T12:33:42.771Z,1.99
2023-04-01T12:34:37.050Z,1.54
2023-04-01T12:35:38.337Z,1.68
2023-04-01T12:36:56.750Z,1.57
2023-04-01T12:37:57.811Z,1.82
2023-04-01T12:39:21.348Z,2.10
2023-04-01T12:40:52.519Z,2.12
2023-04-01T12:42:15.480Z,2.35
2023-04-01T12:43:13.032Z,2.18
2023-04-01T12:44:38.217Z,1.89
2023-04-01T12:46:04.330Z,3.15
2023-04-01T12:47:21.024Z,3.67
2023-04-01T12:48:20.639Z,2.77
2023-04-01T12:49:42.964Z,3.71
2023-04-01T12:50:53.215Z,5.12
2023-04-01T12:51:53.728Z,5.65
2023-04-01T12:53:11.286Z,3.66
2023-04-01T12:54:31.871Z,2.81
2023-04-01T12:55:39.268Z,2.58
2023-04-01T12:56:46.915Z,7.12
2023-04-01T12:58:17.975Z,5.15
2023-04-01T12:59:55.742Z,3.03
2023-04-01T13:01:26.215Z,3.92
2023-04-01T13:02:39.826Z,4.05
2023-04-01T13:04:08.872Z,3.09
2023-04-01T13:05:19.029Z,2.91
2023-04-01T13:06:23.060Z,2.74
2023-04-01T13:07:46.447Z,3.87
2023-04-01T13:09:20.459Z,2.65
2023-04-01T13:10:33.968Z,2.11
2023-04-01T13:11:47.424Z,2.15
2023-04-01T13:12:52.479Z,2.90
2023-04-01T13:14:29.152Z,2.66
2023-04-01T13:15:38.172Z,2.99
2023-04-01T13:16:53.462Z,3.30
2023-04-01T13:17:51.231Z,3.93
2023-04-01T13:18:58.090Z,5.64
2023-04-01T13:20:06.346Z,14.06
2023-04-01T13:21:14.780Z,12.55
2023-04-01T13:22:19.470Z,24.10
2023-04-01T13:23:31.306Z,26.77
2023-04-01T13:24:37.866Z,11.68
2023-04-01T13:25:37.561Z,5.67
2023-04-01T13:27:14.419Z,11.14
2023-04-01T13:28:44.175Z,3.45
2023-04-01T13:29:51.787Z,5.96
2023-04-01T13:31:08.822Z,3.84
2023-04-01T13:32:22.261Z,3.59
2023-04-01T13:33:45.138Z,3.14
2023-04-01T13:35:03.690Z,7.25
2023-04-01T13:36:24.491Z,4.97
2023-04-01T13:37:36.094Z,5.17
2023-04-01T13:38:49.570Z,4.74
2023-04-01T13:40:14.755Z,6.16
2023-04-01T13:41:30.978Z,4.99
2023-04-01T13:42:31.613Z,4.17
2023-04-01T13:43:40.668Z,4.65
2023-04-01T13:44:48.487Z,3.49
2023-04-01T13:46:01.850Z,3.69
2023-04-01T13:47:19.298Z,4.15
2023-04-01T13:48:19.754Z,3.68
2023-04-01T13:49:35.951Z,3.77
2023-04-01T13:50:40.056Z,2.86
2023-04-01T13:51:57.049Z,4.48
2023-04-01T13:53:13.668Z,3.70
2023-04-01T13:54:21.277Z,4.35
2023-04-01T13:55:31.587Z,4.37
2023-04-01T13:56:56.105Z,5.26
2023-04-01T13:58:02.638Z,3.89
2023-04-01T13:59:03.973Z,3.50
2023-04-01T13:59:55.480Z,3.46
2023-04-01T14:01:08.887Z,3.75
2023-04-01T14:02:28.138Z,3.09
2023-04-01T14:03:40.238Z,3.68
2023-04-01T14:04:43.970Z,3.52
2023-04-01T14:06:12.553Z,3.62
2023-04-01T14:07:45.946Z,3.55
2023-04-01T14:09:02.439Z,4.09
2023-04-01T14:10:14.206Z,3.24
2023-04-01T14:11:24.106Z,3.19
2023-04-01T14:12:33.411Z,3.52
2023-04-01T14:14:02.550Z,4.33
2023-04-01T14:15:23.459Z,3.80
2023-04-01T14:16:48.775Z,3.27
2023-04-01T14:17:57.556Z,3.68
2023-04-01T14:19:07.776Z,3.35
2023-04-01T14:20:23.946Z,3.39
2023-04-01T14:21:37.415Z,3.32
2023-04-01T14:23:06.545Z,4.82
2023-04-01T14:24:28.567Z,3.15
2023-04-01T14:25:42.184Z,3.58
2023-04-01T14:26:57.520Z,3.48
2023-04-01T14:28:06.600Z,3.44
2023-04-01T14:29:22.135Z,2.89
2023-04-01T14:30:41.351Z,3.90
2023-04-01T14:31:50.163Z,3.47
2023-04-01T14:33:17.525Z,3.50
2023-04-01T14:34:32.177Z,3.91
2023-04-01T14:35:42.356Z,4.04
2023-04-01T14:37:08.709Z,4.17
2023-04-01T14:38:05.772Z,5.10
2023-04-01T14:39:34.860Z,4.81
2023-04-01T14:40:57.291Z,4.65
2023-04-01T14:41:55.438Z,4.23
2023-04-01T14:42:47.352Z,4.12
2023-04-01T14:43:55.774Z,4.18
2023-04-01T14:45:05.493Z,3.93
2023-04-01T14:46:46.484Z,3.83
2023-04-01T14:48:14.903Z,7.17
2023-04-01T14:49:22.759Z,4.27
2023-04-01T14:50:25.862Z,3.96
2023-04-01T14:51:27.381Z,4.21
2023-04-01T14:52:40.701Z,6.12
2023-04-01T14:53:39.812Z,8.79
2023-04-01T14:54:37.416Z,6.70
2023-04-01T14:55:52.381Z,6.70
2023-04-01T14:57:12.415Z,5.74
2023-04-01T14:58:20.498Z,4.76
2023-04-01T14:59:30.299Z,5.63
2023-04-01T15:00:22.244Z,5.10
2023-04-01T15:01:46.880Z,5.42
2023-04-01T15:02:48.005Z,5.58
2023-04-01T15:04:22.078Z,4.63
2023-04-01T15:05:46.550Z,4.61
2023-04-01T15:07:04.124Z,4.52
2023-04-01T15:08:21.281Z,5.09
2023-04-01T15:09:39.834Z,4.73
2023-04-01T15:11:03.208Z,5.52
2023-04-01T15:12:17.532Z,6.67
2023-04-01T15:13:14.665Z,5.16
2023-04-01T15:14:40.959Z,4.24
2023-04-01T15:16:14.750Z,5.00
2023-04-01T15:17:22.066Z,5.89
2023-04-01T15:18:45.654Z,8.50
2023-04-01T15:20:02.063Z,4.69
2023-04-01T15:21:17.017Z,4.55
2023-04-01T15:22:23.281Z,4.37
2023-04-01T15:23:36.437Z,5.81
2023-04-01T15:25:15.303Z,6.45
2023-04-01T15:26:18.063Z,6.30
2023-04-01T15:27:44.314Z,5.68
2023-04-01T15:28:38.562Z,4.51
2023-04-01T15:29:48.823Z,4.11
2023-04-01T15:30:53.463Z,3.81
2023-04-01T15:32:02.975Z,3.54
2023-04-01T15:33:19.375Z,4.33
2023-04-01T15:34:51.950Z,4.35
2023-04-01T15:35:57.021Z,4.13
2023-04-01T15:36:58.478Z,4.79
2023-04-01T15:38:28.642Z,4.21
2023-04-01T15:39:31.233Z,4.17
2023-04-01T15:40:46.686Z,4.17
2023-04-01T15:42:13.457Z,4.25
2023-04-01T15:43:38.263Z,3.89
2023-04-01T15:45:06.598Z,3.95
2023-04-01T15:46:03.894Z,4.07
2023-04-01T15:46:59.384Z,4.41
2023-04-01T15:48:29.291Z,3.94
2023-04-01T15:49:52.428Z,4.07
2023-04-01T15:51:18.852Z,4.24
2023-04-01T15:52:47.834Z,4.66
2023-04-01T15:53:56.122Z,5.45
2023-04-01T15:55:10.606Z,4.79
2023-04-01T15:56:45.283Z,4.91
2023-04-01T15:58:05.189Z,5.39
2023-04-01T15:59:23.057Z,4.77
2023-04-01T16:00:22.245Z,5.54
2023-04-01T16:01:45.002Z,5.43
2023-04-01T16:02:50.470Z,5.18
2023-04-01T16:04:20.324Z,4.88
2023-04-01T16:05:46.316Z,4.64
2023-04-01T16:06:56.776Z,4.26